Time;durP1;ratioP1;P1;durP2;ratioP2;P2;SDS_P1;SDS_P2;PMS_P1;PMS_P2;Temp;Humidity;BMP_temperature;BMP_pressure;BME280_temperature;BME280_humidity;BME280_pressure;Samples;Min_cycle;Max_cycle;Signal;HPM_P1;HPM_P2
2022/09/19 00:01:12;;;;;;;0.30;0.30;;;;;;;9.53;69.23;98991.31;4937040;29;20043;-66
2022/09/19 00:03:40;;;;;;;0.50;0.50;;;;;;;9.50;68.88;98996.94;4928187;29;20036;-66
2022/09/19 00:06:09;;;;;;;0.35;0.35;;;;;;;9.48;69.23;98998.94;4928571;29;20059;-66
2022/09/19 00:08:39;;;;;;;0.40;0.40;;;;;;;9.44;69.27;98998.47;4937132;29;20088;-66
2022/09/19 00:11:06;;;;;;;0.30;0.30;;;;;;;9.41;69.34;98999.66;4937486;29;20050;-66
2022/09/19 00:13:36;;;;;;;0.40;0.40;;;;;;;9.39;69.81;98998.22;4936908;29;20043;-66
2022/09/19 00:16:03;;;;;;;0.40;0.40;;;;;;;9.39;69.94;99000.84;4935504;29;20173;-66
2022/09/19 00:18:32;;;;;;;0.50;0.50;;;;;;;9.36;69.79;99006.47;4936575;29;20099;-66
2022/09/19 00:21:00;;;;;;;0.38;0.38;;;;;;;9.33;69.98;99006.84;4936594;29;20071;-66
2022/09/19 00:26:17;;;;;;;0.95;0.30;;;;;;;9.31;70.17;99011.47;4936381;29;20047;-66
2022/09/19 00:28:46;;;;;;;0.40;0.40;;;;;;;9.30;70.29;99012.47;4936718;29;20159;-66
2022/09/19 00:31:17;;;;;;;0.30;0.30;;;;;;;9.27;69.93;99000.47;4936563;29;20126;-66
2022/09/19 00:33:46;;;;;;;0.40;0.40;;;;;;;9.25;69.99;99013.00;4928499;29;20047;-66
2022/09/19 00:36:14;;;;;;;0.40;0.40;;;;;;;9.18;69.91;99007.63;4927933;29;20087;-66
2022/09/19 00:38:41;;;;;;;0.52;0.40;;;;;;;9.14;70.33;99010.78;4938416;29;20040;-66
2022/09/19 00:41:14;;;;;;;0.40;0.40;;;;;;;9.09;70.12;99002.59;4939121;29;20530;-66
2022/09/19 00:43:52;;;;;;;0.40;0.40;;;;;;;9.03;70.33;99008.59;4943708;29;20051;-66
2022/09/19 00:46:21;;;;;;;0.60;0.30;;;;;;;8.98;70.52;99009.13;4942345;29;20044;-66
2022/09/19 00:49:03;;;;;;;0.40;0.40;;;;;;;8.95;70.78;99013.94;4941041;29;20044;-66
2022/09/19 00:51:46;;;;;;;0.30;0.30;;;;;;;8.93;70.44;99008.81;4944165;29;20067;-66
2022/09/19 00:54:23;;;;;;;0.30;0.30;;;;;;;8.91;70.67;99010.81;4941107;29;20059;-66
2022/09/19 00:56:52;;;;;;;0.40;0.40;;;;;;;8.90;70.73;99006.56;4937411;29;20063;-68
2022/09/19 00:59:21;;;;;;;0.30;0.30;;;;;;;8.89;70.61;99013.63;4937092;29;20047;-67
2022/09/19 01:01:48;;;;;;;0.40;0.40;;;;;;;8.88;70.88;99019.06;4936617;29;20075;-66
2022/09/19 01:04:18;;;;;;;0.40;0.40;;;;;;;8.88;70.76;99016.44;4925086;29;20107;-70
2022/09/19 01:07:04;;;;;;;0.98;0.50;;;;;;;8.82;70.50;99023.25;4932774;29;20052;-65
2022/09/19 01:09:53;;;;;;;0.50;0.40;;;;;;;8.78;70.63;99029.06;4934604;29;20056;-65
2022/09/19 01:12:26;;;;;;;0.40;0.40;;;;;;;8.77;70.94;99030.03;4934467;29;20082;-65
2022/09/19 01:15:09;;;;;;;0.30;0.30;;;;;;;8.76;70.77;99028.38;4934663;29;20413;-65
2022/09/19 01:17:48;;;;;;;0.75;0.40;;;;;;;8.70;70.86;99029.91;4934332;29;20062;-66
2022/09/19 01:20:33;;;;;;;0.47;0.47;;;;;;;8.66;70.82;99031.28;4918813;29;20126;-65
2022/09/19 01:23:08;;;;;;;0.40;0.40;;;;;;;8.59;70.73;99027.69;4934256;29;20048;-65
2022/09/19 01:25:56;;;;;;;0.55;0.45;;;;;;;8.56;70.92;99039.38;4935442;29;20040;-65
2022/09/19 01:28:49;;;;;;;0.50;0.50;;;;;;;8.55;71.03;99036.94;4935115;29;20044;-65
2022/09/19 01:31:26;;;;;;;0.40;0.40;;;;;;;8.49;71.03;99035.81;4918816;29;20142;-66
2022/09/19 01:34:21;;;;;;;0.52;0.52;;;;;;;8.46;71.11;99030.06;4916863;29;20053;-65
2022/09/19 01:37:00;;;;;;;0.40;0.40;;;;;;;8.44;71.39;99035.50;4931593;29;20122;-65
2022/09/19 01:39:29;;;;;;;0.77;0.50;;;;;;;8.42;71.51;99043.59;4933988;29;20044;-65
2022/09/19 01:41:58;;;;;;;0.35;0.35;;;;;;;8.42;71.32;99048.03;4934167;29;20423;-68
2022/09/19 01:44:28;;;;;;;0.63;0.40;;;;;;;8.43;71.72;99047.84;4934211;29;20515;-65
2022/09/19 01:46:55;;;;;;;1.15;0.40;;;;;;;8.42;71.62;99051.47;4933696;29;20508;-66
2022/09/19 01:49:55;;;;;;;0.40;0.40;;;;;;;8.44;71.77;99057.38;4918238;29;20044;-69
2022/09/19 01:52:52;;;;;;;0.40;0.40;;;;;;;8.47;72.01;99055.41;4913253;29;20484;-68
2022/09/19 01:55:40;;;;;;;1.48;0.32;;;;;;;8.50;71.98;99065.63;4919410;29;20143;-66
2022/09/19 01:58:33;;;;;;;0.73;0.50;;;;;;;8.51;72.13;99065.44;4935186;29;20496;-68
2022/09/19 02:01:16;;;;;;;0.40;0.40;;;;;;;8.50;71.75;99057.72;4912134;29;20047;-65
2022/09/19 02:04:21;;;;;;;0.95;0.40;;;;;;;8.50;71.97;99063.81;4925974;29;20051;-65
2022/09/19 02:06:56;;;;;;;;;;;;;;;8.48;71.95;99068.41;4928608;29;20103;-66
2022/09/19 02:09:25;;;;;;;;;;;;;;;8.47;71.91;99058.06;4935859;29;20438;-65
2022/09/19 02:11:53;;;;;;;0.32;0.30;;;;;;;8.44;72.26;99070.56;4940874;29;19922;-66
2022/09/19 02:14:26;;;;;;;0.38;0.38;;;;;;;8.45;72.31;99074.03;4927447;29;20420;-66
2022/09/19 02:17:04;;;;;;;0.30;0.30;;;;;;;8.47;72.17;99077.31;4942347;29;20055;-69
2022/09/19 02:19:48;;;;;;;0.30;0.30;;;;;;;8.44;72.24;99073.19;4942199;29;20052;-67
2022/09/19 02:22:27;;;;;;;0.30;0.30;;;;;;;8.42;72.23;99071.75;4942356;29;20052;-66
2022/09/19 02:24:58;;;;;;;0.35;0.35;;;;;;;8.42;72.41;99075.19;4941936;29;20497;-67
2022/09/19 02:27:35;;;;;;;0.20;0.20;;;;;;;8.43;72.31;99078.66;4924540;29;20052;-67
2022/09/19 02:30:08;;;;;;;0.90;0.30;;;;;;;8.46;72.55;99080.13;4943430;29;20058;-67
2022/09/19 02:32:46;;;;;;;0.40;0.40;;;;;;;8.45;72.51;99074.03;4937629;29;20055;-67
2022/09/19 02:35:19;;;;;;;0.40;0.38;;;;;;;8.47;72.34;99076.50;4908795;29;20072;-67
2022/09/19 02:37:54;;;;;;;0.52;0.45;;;;;;;8.48;72.31;99081.59;4899170;29;20512;-68
2022/09/19 02:40:40;;;;;;;0.40;0.40;;;;;;;8.48;72.23;99078.13;4918082;29;20567;-68
2022/09/19 02:43:22;;;;;;;0.40;0.40;;;;;;;8.47;72.38;99072.03;4918736;29;20078;-67
2022/09/19 02:46:06;;;;;;;0.43;0.43;;;;;;;8.45;72.37;99079.31;4918201;29;20048;-67
2022/09/19 02:48:49;;;;;;;0.30;0.30;;;;;;;8.43;72.28;99079.47;4919584;29;20068;-67
2022/09/19 02:51:34;;;;;;;0.40;0.40;;;;;;;8.40;72.31;99078.97;4918075;29;20699;-67
2022/09/19 02:54:11;;;;;;;0.63;0.47;;;;;;;8.38;72.43;99071.25;4918138;29;20052;-67
2022/09/19 02:56:41;;;;;;;0.50;0.50;;;;;;;8.34;72.29;99072.56;4917751;29;20052;-68
2022/09/19 02:59:20;;;;;;;0.30;0.30;;;;;;;8.30;72.60;99071.28;4917935;29;20044;-68
2022/09/19 03:01:59;;;;;;;0.45;0.43;;;;;;;8.29;72.71;99074.09;4903131;29;20052;-67
2022/09/19 03:04:32;;;;;;;0.40;0.40;;;;;;;8.27;72.74;99078.69;4925683;29;20424;-68
2022/09/19 03:07:00;;;;;;;0.45;0.45;;;;;;;8.27;72.55;99079.50;4935430;29;20071;-68
2022/09/19 03:09:29;;;;;;;0.30;0.30;;;;;;;8.24;72.84;99076.38;4936757;29;20048;-67
2022/09/19 03:12:18;;;;;;;0.68;0.40;;;;;;;8.19;72.81;99077.72;4936881;29;20142;-67
2022/09/19 03:14:49;;;;;;;0.40;0.32;;;;;;;8.16;73.06;99082.50;4941295;29;20054;-67
2022/09/19 03:17:20;;;;;;;0.38;0.30;;;;;;;8.16;72.97;99082.50;4943558;29;20055;-65
2022/09/19 03:19:48;;;;;;;0.40;0.40;;;;;;;8.15;72.94;99084.31;4939676;29;20051;-65
2022/09/19 03:22:15;;;;;;;0.40;0.40;;;;;;;8.17;73.08;99090.25;4939566;29;20051;-66
2022/09/19 03:24:42;;;;;;;0.75;0.47;;;;;;;8.17;73.19;99086.81;4926742;29;20054;-67
2022/09/19 03:27:09;;;;;;;0.30;0.30;;;;;;;8.18;72.93;99091.06;4941814;29;20055;-67
2022/09/19 03:29:37;;;;;;;0.40;0.40;;;;;;;8.17;73.17;99095.53;4941800;29;20044;-67
2022/09/19 03:32:03;;;;;;;0.35;0.35;;;;;;;8.18;73.20;99098.97;4940297;29;20500;-67
2022/09/19 03:34:32;;;;;;;0.63;0.60;;;;;;;8.17;73.08;99100.78;4930089;29;20349;-67
2022/09/19 03:37:03;;;;;;;0.43;0.43;;;;;;;8.17;73.21;99106.06;4938929;29;20059;-66
2022/09/19 03:39:31;;;;;;;0.30;0.30;;;;;;;8.17;73.27;99105.25;4936566;29;20048;-67
2022/09/19 03:41:57;;;;;;;0.40;0.40;;;;;;;8.16;73.37;99103.56;4938002;29;20130;-67
2022/09/19 03:44:24;;;;;;;0.75;0.50;;;;;;;8.11;73.03;99098.81;4921736;29;20051;-67
2022/09/19 03:46:50;;;;;;;0.30;0.30;;;;;;;8.08;73.34;99104.44;4921155;29;20048;-66
2022/09/19 03:49:19;;;;;;;0.40;0.40;;;;;;;8.09;73.46;99100.00;4936758;29;20044;-68
2022/09/19 03:51:46;;;;;;;0.60;0.50;;;;;;;8.10;73.42;99104.25;4920785;29;20054;-67
2022/09/19 03:54:14;;;;;;;0.43;0.40;;;;;;;8.08;73.49;99103.59;4935957;29;20094;-67
2022/09/19 03:56:42;;;;;;;0.40;0.40;;;;;;;8.09;73.37;99100.00;4935919;29;20408;-67
2022/09/19 03:59:09;;;;;;;0.47;0.47;;;;;;;8.09;73.15;99107.91;4936136;29;20423;-67
2022/09/19 04:01:39;;;;;;;1.02;0.50;;;;;;;8.05;73.34;99109.22;5371698;23;20051;-66
2022/09/19 04:04:06;;;;;;;0.90;0.40;;;;;;;8.03;73.35;99111.19;4929712;29;20044;-66
2022/09/19 04:06:40;;;;;;;0.30;0.30;;;;;;;8.02;73.23;99112.19;4935742;29;20349;-67
2022/09/19 04:09:08;;;;;;;0.40;0.40;;;;;;;8.00;73.59;99117.63;4917461;29;20131;-67
2022/09/19 04:11:35;;;;;;;0.50;0.50;;;;;;;8.01;73.22;99113.19;4934498;29;20056;-66
2022/09/19 04:14:28;;;;;;;0.40;0.40;;;;;;;8.05;73.63;99122.38;4905753;29;20131;-74
2022/09/19 04:16:57;;;;;;;0.35;0.35;;;;;;;8.07;73.44;99123.03;4898321;29;20467;-68
2022/09/19 04:19:44;;;;;;;1.48;0.60;;;;;;;8.10;73.20;99122.69;4900759;29;20112;-67
2022/09/19 04:22:26;;;;;;;0.40;0.40;;;;;;;8.10;73.08;99115.63;4902938;29;20079;-68
2022/09/19 04:25:13;;;;;;;2.00;0.75;;;;;;;8.10;73.21;99118.25;4900421;29;20048;-68
2022/09/19 04:28:02;;;;;;;0.85;0.80;;;;;;;8.09;73.04;99121.88;4900110;29;20063;-68
2022/09/19 04:30:28;;;;;;;1.20;0.80;;;;;;;8.06;73.34;99119.56;4917452;29;20044;-66
2022/09/19 04:32:58;;;;;;;1.40;0.80;;;;;;;8.09;73.36;99121.06;4900131;29;20079;-67
2022/09/19 04:35:25;;;;;;;1.65;0.90;;;;;;;8.11;73.44;99124.34;4900398;29;20412;-67
2022/09/19 04:37:52;;;;;;;1.17;0.80;;;;;;;8.12;73.46;99128.59;4899863;29;20131;-67
2022/09/19 04:40:19;;;;;;;2.13;0.70;;;;;;;8.13;73.53;99131.09;4900129;29;20048;-67
2022/09/19 04:42:46;;;;;;;2.17;0.80;;;;;;;8.14;73.89;99135.34;4900138;29;20059;-67
2022/09/19 04:45:20;;;;;;;1.30;0.70;;;;;;;8.16;73.90;99135.16;4900321;29;20072;-67
2022/09/19 04:48:19;;;;;;;0.80;0.50;;;;;;;8.18;74.01;99134.03;4873656;29;20099;-68
2022/09/19 04:50:50;;;;;;;0.60;0.60;;;;;;;8.22;74.10;99129.25;4885362;29;20044;-67
2022/09/19 04:53:22;;;;;;;1.25;0.70;;;;;;;8.27;73.92;99136.63;4900509;29;20041;-67
2022/09/19 04:55:54;;;;;;;1.05;0.95;;;;;;;8.34;73.98;99143.69;4900130;29;20052;-67
2022/09/19 04:58:21;;;;;;;1.40;0.80;;;;;;;8.42;74.10;99142.88;4899714;29;20049;-68
2022/09/19 05:00:53;;;;;;;1.08;0.60;;;;;;;8.45;73.88;99137.28;4900244;29;20045;-68
2022/09/19 05:03:27;;;;;;;;;;;;;;;8.47;73.67;99139.72;4907300;29;20048;-68
2022/09/19 05:05:55;;;;;;;2.05;0.95;;;;;;;8.43;73.95;99145.31;4899902;29;20403;-68
2022/09/19 05:08:27;;;;;;;3.35;1.20;;;;;;;8.42;73.71;99148.16;4899676;29;20044;-68
2022/09/19 05:10:59;;;;;;;1.88;0.70;;;;;;;8.43;73.87;99147.97;4900174;29;20051;-66
2022/09/19 05:13:30;;;;;;;3.60;1.10;;;;;;;8.48;74.06;99158.00;4899990;29;20500;-67
2022/09/19 05:16:00;;;;;;;2.72;1.00;;;;;;;8.49;73.88;99153.53;4899832;29;20059;-66
2022/09/19 05:18:35;;;;;;;1.70;0.80;;;;;;;8.49;74.16;99164.06;4899788;29;20512;-68
2022/09/19 05:21:07;;;;;;;1.00;0.88;;;;;;;8.50;73.99;99157.84;4899818;29;20068;-67
2022/09/19 05:23:36;;;;;;;2.40;1.13;;;;;;;8.50;74.17;99168.38;4899669;29;20139;-67
2022/09/19 05:26:05;;;;;;;2.78;1.30;;;;;;;8.47;74.10;99166.06;4899607;29;20130;-68
2022/09/19 05:28:32;;;;;;;1.60;1.00;;;;;;;8.46;74.18;99164.44;4899911;29;20040;-68
2022/09/19 05:31:04;;;;;;;2.40;1.08;;;;;;;8.44;74.28;99168.03;4916662;29;20043;-68
2022/09/19 05:33:32;;;;;;;2.65;1.20;;;;;;;8.44;74.49;99168.03;4891513;29;20102;-67
2022/09/19 05:36:01;;;;;;;1.83;1.00;;;;;;;8.47;74.42;99171.34;4899223;29;20119;-68
2022/09/19 05:38:46;;;;;;;1.38;0.95;;;;;;;8.47;74.54;99173.97;4916451;29;20115;-68
2022/09/19 05:41:27;;;;;;;2.50;1.00;;;;;;;8.43;74.24;99174.31;4899394;29;20063;-66
2022/09/19 05:43:56;;;;;;;2.25;1.05;;;;;;;8.42;74.76;99177.94;4899324;29;20086;-67
2022/09/19 05:46:25;;;;;;;3.20;1.17;;;;;;;8.47;74.62;99173.97;4898861;29;20528;-67
2022/09/19 05:48:56;;;;;;;5.13;1.38;;;;;;;8.50;74.67;99177.09;4900053;29;20128;-67
2022/09/19 05:51:24;;;;;;;2.88;1.10;;;;;;;8.49;74.27;99179.88;4899145;29;20526;-67
2022/09/19 05:53:55;;;;;;;2.13;1.00;;;;;;;8.50;74.71;99174.47;4916480;29;20052;-68
2022/09/19 05:56:38;;;;;;;1.20;1.08;;;;;;;8.50;74.99;99173.66;4898973;29;20067;-68
2022/09/19 05:59:06;;;;;;;2.35;1.10;;;;;;;8.50;74.79;99181.56;4898847;29;20485;-68
2022/09/19 06:01:37;;;;;;;2.80;1.20;;;;;;;8.51;74.72;99183.19;4916057;29;20131;-68
2022/09/19 06:04:09;;;;;;;1.92;1.10;;;;;;;8.52;74.80;99182.19;4898834;29;20130;-68
2022/09/19 06:06:38;;;;;;;1.73;1.23;;;;;;;8.56;74.91;99186.13;4891896;29;20144;-68
2022/09/19 06:09:07;;;;;;;2.75;1.30;;;;;;;8.58;74.84;99184.16;4895427;29;20045;-68
2022/09/19 06:11:37;;;;;;;1.27;0.80;;;;;;;8.62;75.32;99194.19;4895804;29;20056;-67
2022/09/19 06:14:16;;;;;;;2.65;0.88;;;;;;;8.70;75.34;99203.88;4898827;29;20079;-68
2022/09/19 06:16:44;;;;;;;4.07;1.10;;;;;;;8.76;75.02;99197.09;4899673;29;20100;-67
2022/09/19 06:19:23;;;;;;;1.83;1.27;;;;;;;8.79;74.52;99205.47;4900873;29;20056;-67
2022/09/19 06:22:22;;;;;;;2.13;1.27;;;;;;;8.83;75.08;99216.50;4890857;29;20404;-69
2022/09/19 06:24:52;;;;;;;2.10;0.90;;;;;;;8.88;74.96;99219.44;4899442;29;20055;-67
2022/09/19 06:27:19;;;;;;;3.20;1.27;;;;;;;8.91;75.15;99224.38;4899306;29;20059;-68
2022/09/19 06:29:47;;;;;;;1.65;1.08;;;;;;;8.97;74.87;99231.59;4899561;29;20052;-68
2022/09/19 06:32:22;;;;;;;1.48;0.80;;;;;;;9.09;74.98;99227.59;4905696;29;20546;-68
2022/09/19 06:35:07;;;;;;;3.15;1.02;;;;;;;9.23;74.65;99235.78;4902668;29;20048;-68
2022/09/19 06:37:35;;;;;;;1.65;0.93;;;;;;;9.29;74.42;99243.81;4904046;29;20067;-68
2022/09/19 06:40:03;;;;;;;1.13;0.65;;;;;;;9.36;74.72;99238.66;4904295;29;20052;-68
2022/09/19 06:43:02;;;;;;;0.98;0.77;;;;;;;9.40;74.44;99235.50;4902666;29;20044;-68
2022/09/19 06:45:38;;;;;;;1.77;1.00;;;;;;;9.41;74.29;99242.41;4919376;29;20062;-67
2022/09/19 06:48:31;;;;;;;0.82;0.80;;;;;;;9.54;74.42;99241.84;4916220;29;20139;-68
2022/09/19 06:51:14;;;;;;;1.95;1.10;;;;;;;9.76;74.26;99242.84;4902329;29;20131;-68
2022/09/19 06:53:40;;;;;;;1.63;1.00;;;;;;;9.91;73.68;99245.53;4902231;29;20508;-69
2022/09/19 06:56:08;;;;;;;2.85;1.25;;;;;;;9.95;73.87;99253.91;4901759;29;20500;-68
2022/09/19 06:58:35;;;;;;;0.90;0.70;;;;;;;10.00;73.82;99251.56;4902224;29;20492;-68
2022/09/19 07:01:01;;;;;;;2.40;1.15;;;;;;;10.01;73.67;99253.22;4902135;29;20047;-67
2022/09/19 07:03:29;;;;;;;1.60;1.02;;;;;;;10.02;73.57;99253.03;4901788;29;20056;-68
2022/09/19 07:05:59;;;;;;;2.15;1.15;;;;;;;10.08;73.48;99262.91;4902195;29;20055;-68
2022/09/19 07:08:37;;;;;;;2.47;1.23;;;;;;;10.20;72.94;99262.47;4901914;29;20475;-68
2022/09/19 07:11:06;;;;;;;1.67;1.00;;;;;;;10.29;73.03;99259.63;4902245;29;20131;-67
2022/09/19 07:13:37;;;;;;;3.67;1.20;;;;;;;10.36;72.98;99267.63;4901783;29;20048;-68
2022/09/19 07:16:07;;;;;;;2.30;1.02;;;;;;;10.44;72.65;99264.09;4901525;29;20513;-68
2022/09/19 07:18:35;;;;;;;3.33;1.27;;;;;;;10.49;72.54;99272.28;4901950;29;20148;-67
2022/09/19 07:21:21;;;;;;;4.10;1.35;;;;;;;10.59;72.38;99268.38;4918892;29;20052;-68
2022/09/19 07:23:54;;;;;;;1.58;1.33;;;;;;;10.68;72.04;99265.66;4902596;29;20052;-68
2022/09/19 07:26:52;;;;;;;1.23;1.05;;;;;;;10.74;72.11;99275.53;4901423;29;20075;-68
2022/09/19 07:29:20;;;;;;;2.80;1.10;;;;;;;10.80;72.00;99274.78;4901805;29;20072;-68
2022/09/19 07:31:47;;;;;;;1.10;0.88;;;;;;;10.88;72.29;99280.78;4901685;29;20058;-69
2022/09/19 07:34:14;;;;;;;1.20;0.70;;;;;;;11.00;72.13;99280.34;4918332;29;20132;-68
2022/09/19 07:36:46;;;;;;;2.13;0.90;;;;;;;11.08;71.79;99280.25;4901772;29;20134;-68
2022/09/19 07:39:13;;;;;;;2.55;1.30;;;;;;;11.17;71.38;99281.78;4902004;29;20052;-67
2022/09/19 07:42:06;;;;;;;3.83;1.20;;;;;;;11.30;70.83;99283.75;4901726;29;20056;-67
2022/09/19 07:44:47;;;;;;;3.17;1.10;;;;;;;11.43;70.89;99294.53;4901175;29;20052;-68
2022/09/19 07:47:33;;;;;;;2.70;1.13;;;;;;;11.60;70.72;99287.19;4901211;29;20523;-67
2022/09/19 07:50:18;;;;;;;1.08;0.98;;;;;;;11.73;70.52;99289.97;4901252;29;20044;-68
2022/09/19 07:53:17;;;;;;;4.60;1.35;;;;;;;11.79;70.08;99294.50;4917031;29;20095;-67
2022/09/19 07:55:51;;;;;;;1.90;1.35;;;;;;;11.85;69.73;99290.31;4901100;29;20461;-67
2022/09/19 07:58:20;;;;;;;2.22;0.73;;;;;;;11.99;69.98;99292.06;4901025;29;20062;-68
2022/09/19 08:00:52;;;;;;;1.10;0.80;;;;;;;12.10;69.80;99282.81;4900990;29;20077;-68
2022/09/19 08:03:38;;;;;;;2.97;1.10;;;;;;;12.09;69.15;99283.81;4916962;29;20088;-68
2022/09/19 08:06:05;;;;;;;2.55;1.20;;;;;;;12.03;69.39;99287.22;4900910;29;20044;-68
2022/09/19 08:08:35;;;;;;;1.85;1.25;;;;;;;12.00;69.38;99292.88;4901094;29;20075;-68
2022/09/19 08:11:09;;;;;;;3.08;1.30;;;;;;;11.99;69.38;99293.91;4901072;29;20056;-67
2022/09/19 08:13:36;;;;;;;2.47;1.33;;;;;;;12.02;69.47;99296.19;4917734;29;20135;-68
2022/09/19 08:16:03;;;;;;;1.30;1.20;;;;;;;12.10;69.29;99290.75;4900618;29;20123;-69
2022/09/19 08:18:31;;;;;;;1.40;1.00;;;;;;;12.21;69.49;99292.91;4900582;29;20047;-68
2022/09/19 08:20:57;;;;;;;1.77;1.10;;;;;;;12.27;68.96;99294.78;4900690;29;20045;-68
2022/09/19 08:23:24;;;;;;;2.78;1.30;;;;;;;12.33;68.63;99290.56;4900718;29;20107;-67
2022/09/19 08:25:53;;;;;;;3.38;1.10;;;;;;;12.44;68.59;99291.84;4900688;29;20048;-67
2022/09/19 08:28:21;;;;;;;2.78;1.48;;;;;;;12.60;68.75;99294.19;4900299;29;20052;-67
2022/09/19 08:30:50;;;;;;;1.92;1.15;;;;;;;12.79;68.10;99304.13;4900586;29;20047;-67
2022/09/19 08:33:18;;;;;;;3.75;1.45;;;;;;;12.99;67.76;99303.44;4900223;29;20055;-67
2022/09/19 08:35:46;;;;;;;2.67;1.10;;;;;;;13.27;67.01;99306.88;4899875;29;20165;-67
2022/09/19 08:38:22;;;;;;;1.98;1.10;;;;;;;13.51;66.48;99312.66;4899855;29;20134;-67
2022/09/19 08:41:18;;;;;;;4.10;1.20;;;;;;;13.78;66.21;99313.59;4900252;29;20044;-67
2022/09/19 08:44:02;;;;;;;3.63;1.40;;;;;;;13.98;65.68;99306.47;4917105;29;20119;-67
2022/09/19 08:46:41;;;;;;;1.90;0.93;;;;;;;14.24;65.01;99313.66;4899964;29;20100;-67
2022/09/19 08:49:27;;;;;;;3.53;1.10;;;;;;;14.43;64.63;99317.34;4917175;29;20048;-67
2022/09/19 08:52:02;;;;;;;2.83;1.05;;;;;;;14.56;64.14;99321.88;4900221;29;20236;-68
2022/09/19 08:54:37;;;;;;;3.88;1.17;;;;;;;14.60;63.81;99331.06;4900119;29;20060;-68
2022/09/19 08:57:16;;;;;;;2.63;1.45;;;;;;;14.62;63.21;99331.69;4899680;29;20048;-68
2022/09/19 08:59:49;;;;;;;1.45;1.23;;;;;;;14.61;63.47;99322.06;4899962;29;20047;-68
2022/09/19 09:02:35;;;;;;;2.58;1.48;;;;;;;14.54;63.21;99337.22;4898899;29;20436;-67
2022/09/19 09:05:54;;;;;;;1.38;0.90;;;;;;;14.39;63.07;99334.72;4910828;29;20040;-67
2022/09/19 09:09:12;;;;;;;1.48;1.05;;;;;;;14.29;63.66;99335.16;4899867;29;20072;-67
2022/09/19 09:12:14;;;;;;;2.80;0.90;;;;;;;14.20;63.45;99335.53;4890876;29;20052;-67
2022/09/19 09:15:04;;;;;;;1.85;1.13;;;;;;;14.19;63.82;99337.38;4899527;29;20100;-67
2022/09/19 09:18:30;;;;;;;1.75;1.08;;;;;;;14.17;63.61;99334.13;4899414;29;20052;-67
2022/09/19 09:21:27;;;;;;;1.83;1.10;;;;;;;14.17;63.80;99344.75;4899776;29;20044;-67
2022/09/19 09:24:24;;;;;;;1.00;0.90;;;;;;;14.29;63.51;99347.63;4899722;29;20151;-67
2022/09/19 09:27:22;;;;;;;2.05;1.13;;;;;;;14.34;63.36;99347.84;4903644;29;20056;-67
2022/09/19 09:30:01;;;;;;;2.78;1.25;;;;;;;14.46;62.91;99345.38;4900016;29;20505;-67
2022/09/19 09:32:35;;;;;;;1.90;1.10;;;;;;;14.63;62.86;99337.84;4899636;29;20055;-67
2022/09/19 09:35:29;;;;;;;1.85;0.82;;;;;;;14.90;62.30;99326.16;4899077;29;20134;-67
2022/09/19 09:38:12;;;;;;;2.15;1.00;;;;;;;15.12;62.15;99329.34;4899228;29;20134;-67
2022/09/19 09:43:58;;;;;;;2.47;0.90;;;;;;;15.33;61.47;99326.41;4910948;29;20400;-67
2022/09/19 09:46:45;;;;;;;2.40;0.95;;;;;;;15.33;61.44;99326.41;4909661;29;20043;-67
2022/09/19 09:49:12;;;;;;;1.70;0.80;;;;;;;15.33;61.14;99322.94;4917934;29;20047;-67
2022/09/19 09:51:44;;;;;;;1.35;0.80;;;;;;;15.34;61.04;99321.91;4918041;29;20102;-67
2022/09/19 09:57:29;;;;;;;2.60;0.98;;;;;;;15.32;60.51;99322.13;4917930;29;20047;-67
2022/09/19 10:03:34;;;;;;;2.30;1.00;;;;;;;15.77;59.57;99322.16;4926880;29;20048;-67
2022/09/19 10:06:43;;;;;;;1.48;1.13;;;;;;;16.04;59.10;99317.50;4888143;29;20063;-68
2022/09/19 10:09:17;;;;;;;2.15;0.80;;;;;;;16.07;58.82;99317.03;4898896;29;20071;-66
2022/09/19 10:12:14;;;;;;;2.60;1.10;;;;;;;16.00;58.84;99316.28;4915337;29;20048;-67
2022/09/19 10:15:05;;;;;;;2.10;1.10;;;;;;;15.89;58.23;99311.63;4898811;29;20099;-68
2022/09/19 10:18:09;;;;;;;;;;;;;;;15.82;58.26;99313.53;4914564;29;20050;-67
2022/09/19 10:20:59;;;;;;;2.03;0.80;;;;;;;15.85;57.92;99321.91;4929510;29;20310;-69
2022/09/19 10:23:32;;;;;;;2.58;1.02;;;;;;;15.88;57.89;99314.50;4905420;29;20045;-68
2022/09/19 10:26:19;;;;;;;1.88;0.80;;;;;;;15.97;57.85;99313.22;4934778;29;20056;-67
2022/09/19 10:28:54;;;;;;;1.30;0.60;;;;;;;16.04;57.66;99320.16;4917911;29;20052;-67
2022/09/19 10:31:38;;;;;;;3.28;0.90;;;;;;;16.06;57.56;99326.09;4917728;29;20098;-65
2022/09/19 10:34:34;;;;;;;1.58;0.68;;;;;;;16.05;57.30;99323.66;4891924;29;20048;-67
2022/09/19 10:37:26;;;;;;;1.10;0.60;;;;;;;16.09;57.53;99328.31;4896905;29;20507;-65
2022/09/19 10:40:02;;;;;;;2.63;0.82;;;;;;;16.21;57.40;99320.47;4895478;29;20366;-65
2022/09/19 10:42:40;;;;;;;2.05;0.80;;;;;;;16.31;56.77;99325.28;4895864;29;20128;-66
2022/09/19 10:45:27;;;;;;;1.38;0.60;;;;;;;16.39;57.15;99321.53;4895601;29;20071;-67
2022/09/19 10:48:05;;;;;;;1.05;0.70;;;;;;;16.46;56.78;99322.31;4896432;29;20037;-67
2022/09/19 10:50:33;;;;;;;1.00;0.70;;;;;;;16.48;56.49;99326.38;4895622;29;20074;-65
2022/09/19 10:53:18;;;;;;;2.17;0.68;;;;;;;16.51;56.54;99323.28;4895662;29;20048;-65
2022/09/19 10:55:45;;;;;;;1.27;0.70;;;;;;;16.63;56.74;99326.06;4895853;29;20533;-67
2022/09/19 10:58:16;;;;;;;1.63;0.60;;;;;;;16.70;56.70;99326.81;4880165;29;20048;-67
2022/09/19 11:00:55;;;;;;;1.02;0.57;;;;;;;16.74;56.77;99324.56;4899133;29;20044;-68
2022/09/19 11:03:35;;;;;;;0.85;0.50;;;;;;;16.87;56.75;99323.63;4892941;29;20396;-67
2022/09/19 11:06:10;;;;;;;1.25;0.60;;;;;;;17.06;56.81;99319.91;4891194;29;20104;-66
2022/09/19 11:08:44;;;;;;;2.45;0.90;;;;;;;17.13;56.46;99318.00;4899262;29;20415;-68
2022/09/19 11:11:37;;;;;;;0.90;0.60;;;;;;;17.06;55.66;99318.09;4899281;29;20080;-67
2022/09/19 11:14:32;;;;;;;1.50;0.60;;;;;;;17.06;55.12;99314.56;4898879;29;20083;-68
2022/09/19 11:17:19;;;;;;;1.83;0.88;;;;;;;17.06;54.88;99317.25;4898695;29;20053;-66
2022/09/19 11:20:25;;;;;;;0.63;0.60;;;;;;;17.10;55.04;99310.41;4899307;29;20080;-70
2022/09/19 11:23:31;;;;;;;1.25;0.65;;;;;;;17.22;54.29;99313.16;4898795;29;20164;-67
2022/09/19 11:26:33;;;;;;;1.35;0.90;;;;;;;17.25;53.76;99313.53;4898597;29;20052;-67
2022/09/19 11:29:13;;;;;;;1.35;0.52;;;;;;;17.26;53.43;99306.34;4898760;29;20096;-69
2022/09/19 11:32:03;;;;;;;1.25;0.75;;;;;;;17.29;53.28;99306.69;4898612;29;20071;-67
2022/09/19 11:35:25;;;;;;;1.20;0.57;;;;;;;17.37;52.89;99310.94;4899348;29;20111;-68
2022/09/19 11:38:32;;;;;;;1.23;0.65;;;;;;;17.37;52.49;99305.59;4901293;29;20048;-67
2022/09/19 11:41:58;;;;;;;1.52;0.93;;;;;;;17.41;52.50;99304.09;4901677;29;20040;-67
2022/09/19 11:44:48;;;;;;;1.83;0.70;;;;;;;17.52;52.18;99300.69;4901893;29;20052;-68
2022/09/19 11:47:16;;;;;;;2.33;1.00;;;;;;;17.47;51.71;99291.69;4918867;29;20524;-69
2022/09/19 11:50:02;;;;;;;1.75;0.77;;;;;;;17.52;51.46;99300.69;4901478;29;20052;-68
2022/09/19 11:52:47;;;;;;;0.65;0.63;;;;;;;17.57;51.25;99287.44;4903939;29;20060;-68
2022/09/19 11:55:45;;;;;;;2.25;0.70;;;;;;;17.55;50.96;99284.19;4902356;29;20076;-67
2022/09/19 11:58:31;;;;;;;2.78;0.68;;;;;;;17.62;50.96;99281.41;4901301;29;20052;-67
2022/09/19 12:01:35;;;;;;;1.77;0.70;;;;;;;17.56;50.46;99279.66;4901055;29;20070;-67
2022/09/19 12:04:24;;;;;;;1.73;0.70;;;;;;;17.59;50.38;99276.50;4900923;29;20517;-66
2022/09/19 12:07:42;;;;;;;2.60;0.70;;;;;;;17.69;50.42;99281.34;4900694;29;20051;-66
2022/09/19 12:10:25;;;;;;;1.63;0.90;;;;;;;17.55;49.92;99275.34;4900766;29;20071;-67
2022/09/19 12:13:02;;;;;;;1.35;0.68;;;;;;;17.53;50.10;99270.22;4901044;29;20120;-66
2022/09/19 12:15:39;;;;;;;1.48;0.70;;;;;;;17.59;49.51;99273.84;4901340;29;20497;-66
2022/09/19 12:18:26;;;;;;;3.08;0.80;;;;;;;17.74;48.87;99276.94;4900880;29;20048;-66
2022/09/19 12:20:57;;;;;;;1.42;0.77;;;;;;;18.05;48.94;99270.53;4901049;29;20051;-66
2022/09/19 12:26:36;;;;;;;1.10;0.73;;;;;;;18.77;48.11;99258.84;4900503;29;20060;-67
2022/09/19 12:29:15;;;;;;;2.25;0.73;;;;;;;19.07;47.15;99266.72;4900567;29;20048;-65
2022/09/19 12:31:48;;;;;;;2.92;0.90;;;;;;;19.31;46.85;99259.44;4900743;29;20051;-66
2022/09/19 12:34:32;;;;;;;2.85;0.70;;;;;;;19.60;45.96;99270.97;4893315;29;20596;-66
2022/09/19 12:37:07;;;;;;;2.33;0.80;;;;;;;19.78;45.96;99257.38;4900304;29;20123;-66
2022/09/19 12:39:46;;;;;;;3.38;0.90;;;;;;;19.89;45.09;99249.53;4900497;29;20048;-67
2022/09/19 12:42:28;;;;;;;1.50;0.60;;;;;;;19.81;45.42;99248.03;4900868;29;20044;-66
2022/09/19 12:45:06;;;;;;;1.30;0.70;;;;;;;19.64;44.99;99250.69;4901064;29;20421;-66